Time;durP1;ratioP1;P1;durP2;ratioP2;P2;SDS_P1;SDS_P2;PMS_P1;PMS_P2;Temp;Humidity;BMP_temperature;BMP_pressure;BME280_temperature;BME280_humidity;BME280_pressure;Samples;Min_cycle;Max_cycle;Signal;HPM_P1;HPM_P2
2021/10/09 00:00:36;;;;;;;30.55;26.58;;;;;;;12.42;69.46;101336.56;10325160;28;20498;-69
2021/10/09 00:05:37;;;;;;;29.42;25.75;;;;;;;12.37;69.30;101337.72;10323706;28;20058;-68
2021/10/09 00:10:39;;;;;;;29.98;25.90;;;;;;;12.36;69.47;101338.66;10329903;28;20084;-69
2021/10/09 00:15:41;;;;;;;32.30;26.75;;;;;;;12.37;69.52;101327.03;10324314;28;20134;-69
2021/10/09 00:20:42;;;;;;;29.63;26.17;;;;;;;12.29;69.74;101333.88;10334330;28;20065;-69
2021/10/09 00:25:44;;;;;;;28.45;25.30;;;;;;;12.24;69.78;101336.88;10324022;28;20462;-67
2021/10/09 00:30:45;;;;;;;32.85;25.92;;;;;;;12.19;69.54;101336.34;10325273;28;20597;-67
2021/10/09 00:35:46;;;;;;;29.50;25.67;;;;;;;12.15;69.67;101330.38;10321249;28;20141;-69
2021/10/09 00:40:48;;;;;;;30.52;25.98;;;;;;;12.13;69.53;101324.28;10328760;28;20149;-69
2021/10/09 00:45:56;;;;;;;28.50;24.30;;;;;;;12.09;69.08;101317.44;10347132;28;20049;-69
2021/10/09 00:50:57;;;;;;;29.35;23.13;;;;;;;12.09;69.37;101320.13;10324261;28;20077;-69
2021/10/09 00:56:01;;;;;;;26.27;22.42;;;;;;;12.09;69.23;101316.59;10322595;28;20133;-68
2021/10/09 01:01:02;;;;;;;25.77;22.57;;;;;;;12.06;68.67;101314.16;10321704;28;20122;-67
2021/10/09 01:06:04;;;;;;;26.48;22.10;;;;;;;12.06;68.93;101308.81;10321670;28;20523;-68
2021/10/09 01:11:05;;;;;;;24.60;21.85;;;;;;;12.06;68.83;101307.00;10326884;28;20125;-70
2021/10/09 01:16:25;;;;;;;25.65;21.48;;;;;;;12.01;68.49;101312.66;10322903;28;20046;-68
2021/10/09 01:21:26;;;;;;;26.73;21.85;;;;;;;11.97;68.77;101300.47;10319715;28;20576;-68
2021/10/09 01:26:28;;;;;;;26.10;21.02;;;;;;;11.96;68.91;101306.78;10321299;28;20140;-68
2021/10/09 01:31:30;;;;;;;24.38;21.73;;;;;;;11.95;68.49;101299.75;10322121;28;20358;-68
2021/10/09 01:36:38;;;;;;;29.83;22.30;;;;;;;11.91;68.59;101294.69;10325412;28;20054;-69
2021/10/09 01:41:43;;;;;;;26.10;22.60;;;;;;;11.85;68.73;101295.97;10325232;28;20073;-68
2021/10/09 01:46:44;;;;;;;26.45;23.58;;;;;;;11.80;68.64;101282.94;10351303;28;20046;-69
2021/10/09 01:51:45;;;;;;;28.85;24.83;;;;;;;11.80;69.29;101290.09;10338225;28;20479;-71
2021/10/09 01:56:47;;;;;;;27.67;24.52;;;;;;;11.77;69.11;101292.97;10349993;28;20439;-68
2021/10/09 02:01:48;;;;;;;28.58;23.33;;;;;;;11.71;69.11;101288.94;10320121;28;20069;-68
2021/10/09 02:06:50;;;;;;;27.67;23.27;;;;;;;11.71;69.17;101288.06;10317072;28;20046;-69
2021/10/09 02:11:52;;;;;;;29.88;24.60;;;;;;;11.66;69.38;101281.25;10318012;28;20532;-69
2021/10/09 02:17:23;;;;;;;25.80;22.63;;;;;;;11.64;69.51;101272.47;10317523;28;20097;-69
2021/10/09 02:27:44;;;;;;;29.63;25.17;;;;;;;11.53;69.67;101280.38;10313105;28;20125;-70
2021/10/09 02:32:46;;;;;;;37.20;25.65;;;;;;;11.47;70.09;101281.66;10317982;28;20466;-69
2021/10/09 02:37:47;;;;;;;31.75;24.50;;;;;;;11.45;70.01;101277.38;10320201;28;20626;-68
2021/10/09 02:42:49;;;;;;;30.13;24.20;;;;;;;11.43;69.77;101284.63;10322836;28;20402;-68
2021/10/09 02:47:50;;;;;;;32.67;26.25;;;;;;;11.42;69.98;101289.06;10318098;28;20461;-69
2021/10/09 02:52:52;;;;;;;26.80;23.88;;;;;;;11.37;70.31;101285.03;10318971;28;20089;-68
2021/10/09 02:57:53;;;;;;;27.13;23.95;;;;;;;11.34;70.51;101279.91;10310184;28;20568;-68
2021/10/09 03:02:54;;;;;;;31.08;25.63;;;;;;;11.30;70.59;101274.78;10314827;28;20046;-69
2021/10/09 03:07:56;;;;;;;29.98;24.20;;;;;;;11.29;70.85;101280.22;10317924;28;20070;-69
2021/10/09 03:12:58;;;;;;;29.95;24.92;;;;;;;11.26;70.19;101286.59;10318811;28;20580;-68
2021/10/09 03:17:59;;;;;;;27.60;24.42;;;;;;;11.19;70.58;101289.78;10332905;28;20061;-69
2021/10/09 03:23:02;;;;;;;32.47;26.02;;;;;;;11.11;70.89;101290.31;10342088;28;20054;-69
2021/10/09 03:28:03;;;;;;;30.90;25.90;;;;;;;11.15;70.80;101291.78;10331840;28;20473;-70
2021/10/09 03:33:05;;;;;;;32.30;26.58;;;;;;;11.10;71.13;101293.91;10322777;28;20042;-69
2021/10/09 03:38:07;;;;;;;30.77;24.75;;;;;;;11.10;70.90;101293.91;10317199;28;20544;-69
2021/10/09 03:43:12;;;;;;;27.90;24.35;;;;;;;11.09;70.93;101292.19;10316218;28;20113;-69
2021/10/09 03:53:18;;;;;;;32.08;24.25;;;;;;;11.07;71.05;101296.78;10324937;28;20448;-69
2021/10/09 03:58:20;;;;;;;34.22;25.48;;;;;;;11.03;70.88;101298.78;10325101;28;20101;-69
2021/10/09 04:03:21;;;;;;;31.05;23.48;;;;;;;11.06;70.71;101290.59;10319041;28;20102;-69
2021/10/09 04:08:22;;;;;;;25.48;22.33;;;;;;;11.12;70.11;101297.31;10322438;28;20489;-70
2021/10/09 04:13:24;;;;;;;29.70;23.88;;;;;;;11.08;70.41;101293.16;10323059;28;20054;-69
2021/10/09 04:18:25;;;;;;;27.95;24.05;;;;;;;11.10;70.36;101299.25;10323397;28;20101;-69
2021/10/09 04:23:27;;;;;;;29.95;24.50;;;;;;;10.94;70.77;101281.63;10358414;23;20137;-65
2021/10/09 04:28:28;;;;;;;30.65;24.08;;;;;;;10.96;71.17;101293.00;10357603;28;20165;-65
2021/10/09 04:33:30;;;;;;;27.95;23.40;;;;;;;11.03;71.93;101282.78;10351669;28;20459;-65
2021/10/09 04:38:31;;;;;;;29.38;23.58;;;;;;;11.08;71.15;101310.00;10362433;28;20045;-65
2021/10/09 04:43:32;;;;;;;26.10;22.63;;;;;;;11.09;71.53;101300.19;10366662;28;20137;-66
2021/10/09 04:48:34;;;;;;;30.60;24.67;;;;;;;10.96;71.48;101277.03;10348682;28;20565;-65
2021/10/09 04:53:35;;;;;;;26.45;22.75;;;;;;;10.99;71.46;101294.63;10358066;28;20046;-66
2021/10/09 04:58:36;;;;;;;28.65;23.52;;;;;;;10.98;71.67;101294.72;10357904;28;20044;-64
2021/10/09 05:03:38;;;;;;;32.33;24.90;;;;;;;10.92;71.34;101302.16;10375466;28;20582;-64
2021/10/09 05:08:39;;;;;;;27.88;24.17;;;;;;;10.91;71.34;101300.47;10365664;28;20073;-64
2021/10/09 05:13:41;;;;;;;31.77;24.45;;;;;;;10.77;71.33;101287.19;10378207;28;20072;-64
2021/10/09 05:18:42;;;;;;;28.55;23.88;;;;;;;10.73;71.28;101291.88;10373374;28;20140;-63
2021/10/09 05:23:43;;;;;;;27.42;23.02;;;;;;;10.82;71.57;101306.38;10368022;28;20057;-63
2021/10/09 05:28:47;;;;;;;29.00;23.48;;;;;;;10.73;71.56;101296.31;10374588;28;20112;-64
2021/10/09 05:33:50;;;;;;;27.48;24.42;;;;;;;10.72;71.89;101295.47;10378740;28;20042;-64
2021/10/09 05:38:52;;;;;;;27.60;22.83;;;;;;;10.82;71.59;101322.34;10381061;28;20130;-64
2021/10/09 05:43:53;;;;;;;30.15;23.83;;;;;;;10.78;71.70;101323.53;10376641;28;20133;-63
2021/10/09 05:48:56;;;;;;;31.95;25.02;;;;;;;10.77;71.62;101329.78;10368367;28;20219;-64
2021/10/09 05:55:08;;;;;;;28.15;23.70;;;;;;;10.76;71.59;101328.06;10376871;28;20057;-64
2021/10/09 06:47:16;;;;;;;24.27;21.02;;;;;;;11.55;67.78;101363.78;10376527;28;20075;-65
2021/10/09 07:02:57;;;;;;;26.08;20.92;;;;;;;12.10;67.02;101377.88;10371411;28;20156;-64
2021/10/09 07:08:08;;;;;;;23.63;20.23;;;;;;;12.27;66.17;101387.38;10371459;28;20050;-63
2021/10/09 07:13:10;;;;;;;28.00;20.45;;;;;;;12.42;66.14;101387.28;10371111;28;20143;-64
2021/10/09 07:18:13;;;;;;;23.98;20.85;;;;;;;12.46;65.33;101386.09;10372030;28;20144;-64
2021/10/09 07:23:14;;;;;;;27.15;20.05;;;;;;;12.67;63.78;101392.59;10381705;28;20134;-66
2021/10/09 07:28:15;;;;;;;24.80;19.95;;;;;;;12.98;63.37;101394.88;10385463;28;20119;-68
2021/10/09 07:33:17;;;;;;;22.23;17.25;;;;;;;12.98;63.97;101398.38;10380792;28;20071;-66
2021/10/09 07:38:18;;;;;;;25.08;18.95;;;;;;;13.26;62.46;101399.06;10391052;28;20105;-68
2021/10/09 07:43:20;;;;;;;21.05;17.58;;;;;;;13.39;62.77;101402.56;10382802;28;20053;-67
2021/10/09 07:48:21;;;;;;;18.58;16.58;;;;;;;13.72;60.72;101413.50;10380765;28;20081;-65
2021/10/09 07:53:24;;;;;;;19.38;16.92;;;;;;;13.93;61.42;101403.00;10379924;28;20174;-66
2021/10/09 07:58:25;;;;;;;21.92;16.77;;;;;;;13.96;59.14;101400.09;10379158;28;20457;-66
2021/10/09 08:03:26;;;;;;;21.42;19.23;;;;;;;14.22;58.55;101416.84;10378466;28;20153;-65
2021/10/09 08:08:28;;;;;;;21.35;18.73;;;;;;;14.38;58.24;101397.75;10381274;28;20081;-65
2021/10/09 08:13:30;;;;;;;22.73;18.75;;;;;;;14.69;57.92;101413.25;10378467;28;20058;-64
2021/10/09 08:18:31;;;;;;;21.10;17.35;;;;;;;14.93;57.57;101411.28;10377171;28;20058;-65
2021/10/09 08:23:54;;;;;;;18.42;15.63;;;;;;;15.19;56.51;101409.19;10377774;28;20090;-65
2021/10/09 08:39:36;;;;;;;16.88;14.63;;;;;;;15.81;54.10;101388.00;10378426;28;20095;-66
2021/10/09 08:44:40;;;;;;;17.10;13.23;;;;;;;16.42;52.66;101413.25;10370701;28;20062;-67
2021/10/09 08:49:41;;;;;;;16.15;13.57;;;;;;;16.84;51.03;101415.81;10377994;28;20053;-67
2021/10/09 08:54:44;;;;;;;20.02;15.40;;;;;;;17.19;51.08;101413.69;10372070;28;20109;-67
2021/10/09 09:00:01;;;;;;;16.20;13.13;;;;;;;17.56;48.74;101413.03;10361649;28;20494;-67
2021/10/09 09:05:37;;;;;;;13.77;11.82;;;;;;;17.79;48.24;101375.88;10367281;28;20041;-66
2021/10/09 09:27:06;;;;;;;19.40;13.05;;;;;;;19.53;42.39;101393.34;10378843;28;20053;-68
2021/10/09 09:37:41;;;;;;;16.57;12.43;;;;;;;20.19;41.85;101386.66;10381381;28;20108;-67
2021/10/09 09:42:47;;;;;;;18.17;12.32;;;;;;;21.12;40.90;101388.63;10376798;28;20050;-68
2021/10/09 09:47:52;;;;;;;17.02;11.45;;;;;;;22.08;38.69;101380.88;10379358;28;20104;-68
2021/10/09 09:52:54;;;;;;;12.65;11.32;;;;;;;25.48;33.75;101371.44;10369862;28;20154;-67
2021/10/09 09:57:59;;;;;;;11.77;8.80;;;;;;;27.80;27.99;101363.75;10363837;28;20124;-67
2021/10/09 10:03:03;;;;;;;11.77;9.57;;;;;;;28.76;26.55;101371.56;10368247;28;20053;-67
2021/10/09 10:08:04;;;;;;;12.00;9.85;;;;;;;27.78;28.66;101365.84;10372829;28;20107;-66
2021/10/09 10:13:07;;;;;;;11.70;10.55;;;;;;;26.26;30.92;101335.97;10374071;28;20049;-66
2021/10/09 10:18:09;;;;;;;12.80;10.93;;;;;;;26.53;30.84;101368.88;10372901;28;20057;-66
2021/10/09 10:23:10;;;;;;;11.23;9.73;;;;;;;27.68;28.82;101346.28;10372313;28;20124;-67
2021/10/09 10:28:21;;;;;;;11.32;9.55;;;;;;;31.28;23.97;101350.19;10376653;28;20188;-65
2021/10/09 10:33:23;;;;;;;9.60;8.52;;;;;;;34.04;20.14;101352.53;10374803;28;20227;-66
2021/10/09 10:38:36;;;;;;;10.52;8.23;;;;;;;35.49;18.88;101346.75;10375466;28;20076;-65
2021/10/09 10:43:44;;;;;;;10.85;7.97;;;;;;;36.43;17.76;101347.91;10357213;28;20124;-67
2021/10/09 10:59:34;;;;;;;10.00;8.10;;;;;;;38.54;15.32;101311.75;10378559;28;20143;-68
2021/10/09 11:04:39;;;;;;;9.20;7.47;;;;;;;39.59;15.79;101319.09;10388382;28;20073;-66
2021/10/09 11:15:22;;;;;;;7.60;6.82;;;;;;;40.40;13.72;101319.28;10361442;22;20057;-62
2021/10/09 11:20:28;;;;;;;8.27;7.47;;;;;;;41.23;12.68;101315.28;10361982;28;20077;-60
2021/10/09 11:25:34;;;;;;;10.80;7.50;;;;;;;41.48;12.71;101314.88;10369044;28;20136;-60
2021/10/09 11:30:36;;;;;;;8.30;6.53;;;;;;;42.33;12.08;101309.00;10365882;28;20132;-62
2021/10/09 11:35:41;;;;;;;7.30;6.53;;;;;;;41.98;12.05;101303.03;10361745;28;20053;-61
2021/10/09 11:40:47;;;;;;;6.13;5.63;;;;;;;43.04;11.35;101302.06;10365007;28;20144;-61
2021/10/09 11:56:13;;;;;;;6.80;5.93;;;;;;;44.19;10.62;101299.50;10347785;28;20124;-61
2021/10/09 12:01:38;;;;;;;6.68;6.07;;;;;;;44.21;9.85;101294.38;10351301;28;20964;-61
2021/10/09 12:06:49;;;;;;;6.80;5.32;;;;;;;44.95;10.54;101286.16;10350431;28;20081;-60
2021/10/09 12:12:09;;;;;;;6.78;5.45;;;;;;;45.18;9.64;101289.63;10351777;28;20162;-60
2021/10/09 12:17:11;;;;;;;8.32;4.97;;;;;;;45.81;9.69;101281.50;10352081;28;20126;-61
2021/10/09 12:22:14;;;;;;;5.32;3.72;;;;;;;45.80;8.51;101277.03;10350045;28;20168;-60
2021/10/09 12:27:26;;;;;;;5.32;4.43;;;;;;;46.00;8.49;101267.00;10348026;28;20058;-60
2021/10/09 12:32:30;;;;;;;6.30;4.00;;;;;;;46.01;8.07;101257.38;10355761;28;20081;-63
2021/10/09 12:37:34;;;;;;;5.88;4.20;;;;;;;46.08;8.75;101258.81;10355324;28;20124;-61
2021/10/09 12:42:35;;;;;;;5.03;4.05;;;;;;;46.29;8.10;101247.59;10345743;28;20053;-63
2021/10/09 12:47:37;;;;;;;4.90;4.25;;;;;;;46.52;7.65;101240.44;10351214;28;20046;-61
2021/10/09 12:52:39;;;;;;;4.20;3.90;;;;;;;46.52;8.07;101240.44;10347569;28;20513;-61
2021/10/09 12:57:49;;;;;;;4.65;3.78;;;;;;;46.57;7.78;101234.66;10356979;28;20542;-62
2021/10/09 13:02:51;;;;;;;5.03;3.17;;;;;;;46.03;7.17;101226.94;10349064;28;20099;-60
2021/10/09 13:07:55;;;;;;;5.70;3.90;;;;;;;46.21;8.08;101222.03;10351946;28;20128;-60
2021/10/09 13:12:57;;;;;;;7.65;3.88;;;;;;;46.35;7.86;101218.91;10354795;28;20122;-61
2021/10/09 13:17:58;;;;;;;4.47;3.60;;;;;;;45.43;8.18;101228.06;10362356;28;20089;-61
2021/10/09 13:23:01;;;;;;;6.00;3.55;;;;;;;45.65;7.93;101212.91;10349826;28;20054;-60
2021/10/09 13:28:10;;;;;;;4.63;3.60;;;;;;;45.32;8.28;101217.19;10345224;28;20521;-62
2021/10/09 13:33:11;;;;;;;4.72;3.58;;;;;;;45.31;8.07;101215.56;10338808;28;20123;-61
2021/10/09 13:38:14;;;;;;;5.80;3.33;;;;;;;45.45;8.37;101203.28;10342891;28;20126;-63
2021/10/09 13:43:15;;;;;;;3.70;3.22;;;;;;;45.60;8.31;101205.50;10348081;28;20053;-62
2021/10/09 13:48:17;;;;;;;4.72;3.58;;;;;;;45.11;8.73;101199.44;10354170;28;20136;-64
2021/10/09 13:53:20;;;;;;;4.13;3.55;;;;;;;44.77;8.39;101196.38;10337143;28;21719;-61
2021/10/09 13:58:21;;;;;;;3.85;2.92;;;;;;;44.38;8.27;101186.16;10347027;28;20128;-61
2021/10/09 14:03:24;;;;;;;3.75;3.40;;;;;;;43.53;9.02;101193.75;10347268;28;20046;-63
2021/10/09 14:08:27;;;;;;;4.47;4.00;;;;;;;43.69;9.26;101184.88;10340910;28;20065;-63
2021/10/09 14:13:29;;;;;;;4.38;3.65;;;;;;;43.35;9.34;101167.63;10334526;28;20081;-61
2021/10/09 14:18:30;;;;;;;4.63;3.67;;;;;;;42.70;9.93;101174.69;10337187;28;20198;-60
2021/10/09 14:23:32;;;;;;;5.65;3.53;;;;;;;41.74;10.49;101179.41;10326925;28;20141;-62
2021/10/09 14:28:38;;;;;;;5.28;3.80;;;;;;;41.20;10.84;101170.69;10327378;28;20054;-61
2021/10/09 14:33:41;;;;;;;5.90;4.22;;;;;;;37.33;13.31;101168.28;10335497;28;20595;-60
2021/10/09 14:38:42;;;;;;;6.00;4.10;;;;;;;33.46;16.85;101170.63;10334918;28;20081;-60
2021/10/09 14:43:44;;;;;;;5.03;3.90;;;;;;;30.49;20.05;101171.66;10342202;28;20046;-64
2021/10/09 14:48:46;;;;;;;5.97;3.80;;;;;;;28.68;21.87;101167.25;10341269;28;20333;-60
2021/10/09 15:20:17;;;;;;;6.15;4.50;;;;;;;23.24;30.75;101167.63;10343796;28;20093;-59
2021/10/09 15:25:19;;;;;;;6.03;4.97;;;;;;;23.00;31.43;101184.09;10350932;28;20182;-61
2021/10/09 15:30:20;;;;;;;6.35;5.07;;;;;;;22.62;31.55;101175.91;10345729;28;20597;-59
2021/10/09 15:35:22;;;;;;;5.50;4.70;;;;;;;22.38;32.67;101181.34;10342125;28;20075;-59
2021/10/09 15:40:23;;;;;;;5.90;5.05;;;;;;;22.14;32.56;101182.25;10362892;28;20081;-60
2021/10/09 15:45:25;;;;;;;6.53;4.93;;;;;;;21.68;33.68;101180.25;10363041;28;20045;-60
2021/10/09 15:50:27;;;;;;;5.22;4.70;;;;;;;21.55;35.01;101185.38;10352398;28;20172;-61
2021/10/09 15:55:29;;;;;;;5.88;5.05;;;;;;;21.25;35.10;101186.94;10328869;28;20073;-60
2021/10/09 16:00:30;;;;;;;6.13;4.55;;;;;;;21.06;35.70;101188.13;10346133;28;20125;-59
2021/10/09 16:05:32;;;;;;;7.07;4.68;;;;;;;20.71;35.28;101195.56;10344132;28;20058;-61
2021/10/09 16:10:33;;;;;;;5.38;4.68;;;;;;;20.40;37.16;101183.47;10339907;28;20046;-59
2021/10/09 16:15:37;;;;;;;7.05;4.85;;;;;;;20.26;37.65;101193.03;10342409;28;20614;-62
2021/10/09 16:20:39;;;;;;;6.60;5.03;;;;;;;20.10;38.33;101188.44;10344257;28;20056;-62
2021/10/09 16:25:40;;;;;;;6.25;5.03;;;;;;;19.83;38.52;101200.31;10345861;28;20576;-58
2021/10/09 16:30:42;;;;;;;6.53;5.03;;;;;;;19.65;38.37;101197.66;10357117;28;20129;-60
2021/10/09 16:35:43;;;;;;;5.53;5.03;;;;;;;19.37;39.35;101203.22;10343717;28;20056;-61
2021/10/09 16:40:45;;;;;;;6.18;5.20;;;;;;;19.16;40.07;101205.44;10342901;28;20104;-60
2021/10/09 16:45:46;;;;;;;7.40;5.40;;;;;;;19.05;40.97;101215.47;10343019;28;20077;-60
2021/10/09 16:50:48;;;;;;;6.57;5.97;;;;;;;18.84;41.01;101218.44;10340575;28;20065;-61
2021/10/09 16:55:49;;;;;;;8.23;6.57;;;;;;;18.63;41.56;101231.38;10332496;28;20143;-60
2021/10/09 17:00:51;;;;;;;8.98;7.45;;;;;;;18.48;42.30;101231.03;10349939;28;20172;-62
2021/10/09 17:05:57;;;;;;;8.05;6.85;;;;;;;18.31;42.62;101228.16;10327068;28;20082;-59
2021/10/09 17:11:00;;;;;;;8.45;7.53;;;;;;;18.17;43.37;101232.19;10329560;28;20124;-60
2021/10/09 17:21:12;;;;;;;10.18;7.80;;;;;;;17.82;44.25;101227.53;10195594;28;20397;-59
2021/10/09 17:26:14;;;;;;;8.77;7.32;;;;;;;17.68;44.89;101228.81;10221995;28;20139;-59
2021/10/09 17:31:15;;;;;;;7.88;6.47;;;;;;;17.55;45.22;101239.91;10210967;28;20063;-56
2021/10/09 17:36:17;;;;;;;8.88;6.97;;;;;;;17.46;45.28;101244.31;10213232;28;20147;-57
2021/10/09 17:41:22;;;;;;;6.72;6.10;;;;;;;17.37;46.54;101249.72;10210481;28;20055;-58
2021/10/09 17:46:23;;;;;;;10.25;7.57;;;;;;;17.24;46.82;101245.47;10194528;28;20134;-57
2021/10/09 17:51:33;;;;;;;14.13;9.93;;;;;;;17.10;47.32;101254.00;10208479;28;20055;-56
2021/10/09 17:56:36;;;;;;;10.27;8.70;;;;;;;16.96;48.24;101247.19;10208716;28;20576;-60
2021/10/09 18:01:37;;;;;;;11.65;8.82;;;;;;;16.87;49.42;101258.78;10210022;28;20122;-62
2021/10/09 18:06:40;;;;;;;12.82;9.35;;;;;;;16.81;50.08;101254.78;10207891;28;20062;-59
2021/10/09 18:11:41;;;;;;;10.40;9.27;;;;;;;16.72;50.33;101261.00;10215547;28;20125;-58
2021/10/09 18:16:43;;;;;;;13.55;10.02;;;;;;;16.52;51.31;101244.00;10194852;28;20211;-53
2021/10/09 18:21:44;;;;;;;11.25;10.15;;;;;;;16.41;51.46;101231.53;10211285;28;20061;-58
2021/10/09 18:26:46;;;;;;;11.75;9.75;;;;;;;16.44;51.40;101263.50;10212205;28;20611;-56
2021/10/09 18:31:47;;;;;;;9.65;8.75;;;;;;;16.35;51.97;101262.47;10211806;28;20138;-58
2021/10/09 18:36:48;;;;;;;11.50;10.23;;;;;;;16.22;52.41;101254.66;10211009;28;20150;-53
2021/10/09 18:41:50;;;;;;;11.90;10.50;;;;;;;16.23;52.98;101267.09;10210308;28;20081;-57
2021/10/09 18:46:51;;;;;;;13.13;11.50;;;;;;;16.06;53.51;101276.66;10212623;28;20083;-56
2021/10/09 18:51:53;;;;;;;12.48;11.13;;;;;;;15.99;53.91;101269.25;10210539;28;20075;-55
2021/10/09 18:56:54;;;;;;;11.93;10.82;;;;;;;15.89;54.39;101272.72;10210476;28;20059;-59
2021/10/09 19:01:55;;;;;;;13.27;11.27;;;;;;;15.78;54.43;101275.50;10212957;28;20126;-54
2021/10/09 19:06:57;;;;;;;12.85;11.02;;;;;;;15.67;55.18;101270.19;10203689;28;20056;-53
2021/10/09 19:11:58;;;;;;;15.52;12.10;;;;;;;15.60;54.64;101271.69;10208301;28;21367;-54
2021/10/09 19:17:00;;;;;;;15.38;12.55;;;;;;;15.43;54.83;101273.97;10215223;28;20526;-53
2021/10/09 19:22:05;;;;;;;14.18;12.65;;;;;;;15.29;55.04;101283.19;10214992;28;20063;-59
2021/10/09 19:27:06;;;;;;;12.88;11.43;;;;;;;15.07;55.42;101272.56;10215488;28;20670;-56
2021/10/09 19:32:08;;;;;;;12.98;11.20;;;;;;;15.03;55.79;101277.34;10214260;28;20068;-58
2021/10/09 19:37:12;;;;;;;15.30;12.70;;;;;;;15.01;55.82;101300.72;10214196;28;20086;-60
2021/10/09 19:42:14;;;;;;;16.63;13.55;;;;;;;14.91;55.96;101297.97;10211792;28;20062;-62
2021/10/09 19:47:19;;;;;;;13.73;12.40;;;;;;;14.74;56.22;101283.28;10225266;28;20051;-56
2021/10/09 19:52:22;;;;;;;15.57;12.90;;;;;;;14.73;56.15;101291.44;10210735;28;20443;-55
2021/10/09 19:57:24;;;;;;;12.50;11.25;;;;;;;14.75;56.62;101302.88;10212286;28;20153;-54
2021/10/09 20:02:25;;;;;;;11.93;10.65;;;;;;;14.62;56.37;101293.16;10213587;28;20122;-55
2021/10/09 20:07:27;;;;;;;12.43;11.10;;;;;;;14.62;56.97;101311.06;10208592;28;20058;-59
2021/10/09 20:12:31;;;;;;;11.95;10.68;;;;;;;14.47;57.07;101308.63;10210993;28;20134;-57
2021/10/09 20:17:33;;;;;;;12.45;10.13;;;;;;;14.31;57.77;101314.34;10215488;28;20062;-55
2021/10/09 20:22:34;;;;;;;14.80;11.10;;;;;;;14.20;57.81;101300.97;10205420;28;20131;-55
2021/10/09 20:27:36;;;;;;;12.85;11.52;;;;;;;14.22;57.89;101317.75;10211949;28;20131;-55
2021/10/09 20:32:37;;;;;;;12.27;10.95;;;;;;;14.14;57.68;101321.03;10216464;28;20484;-57
2021/10/09 20:37:39;;;;;;;12.65;10.95;;;;;;;14.09;57.68;101319.69;10215025;28;20118;-53
2021/10/09 20:42:40;;;;;;;14.18;11.88;;;;;;;13.91;57.58;101304.09;10213531;28;20051;-55
2021/10/09 20:47:42;;;;;;;12.13;10.63;;;;;;;13.89;57.57;101314.06;10215351;28;20654;-53
2021/10/09 20:52:44;;;;;;;15.05;10.95;;;;;;;13.90;57.84;101336.31;10197969;28;20186;-57
2021/10/09 20:57:45;;;;;;;13.63;11.85;;;;;;;13.73;57.61;101325.09;10215356;28;20070;-55
2021/10/09 21:02:47;;;;;;;16.92;12.80;;;;;;;13.77;57.30;101323.91;10212266;28;20168;-58
2021/10/09 21:07:48;;;;;;;12.40;11.13;;;;;;;13.69;57.91;101328.13;10213203;28;20519;-55
2021/10/09 21:12:59;;;;;;;15.35;12.27;;;;;;;13.65;57.55;101332.03;10208228;28;20065;-55
2021/10/09 21:23:20;;;;;;;16.80;12.38;;;;;;;13.47;57.69;101324.44;10222144;28;20043;-54
2021/10/09 21:28:22;;;;;;;13.57;12.13;;;;;;;13.45;58.27;101339.75;10218693;28;20093;-54
2021/10/09 21:33:23;;;;;;;12.52;10.55;;;;;;;13.40;58.13;101333.88;10219065;28;20090;-55
2021/10/09 21:38:31;;;;;;;12.40;11.13;;;;;;;13.32;58.32;101331.75;10226836;28;20062;-55
2021/10/09 21:43:32;;;;;;;13.35;11.98;;;;;;;13.29;58.47;101325.78;10231684;28;20047;-56
2021/10/09 21:48:34;;;;;;;12.50;11.20;;;;;;;13.24;58.33;101328.78;10229304;28;20078;-55
2021/10/09 21:53:35;;;;;;;14.98;11.15;;;;;;;13.23;58.67;101337.78;10225185;28;20071;-54
2021/10/09 21:58:47;;;;;;;12.82;10.82;;;;;;;13.22;58.52;101341.41;10228218;28;20474;-55
2021/10/09 22:19:43;;;;;;;13.85;11.63;;;;;;;12.89;59.00;101332.25;10187031;28;20150;-55
2021/10/09 22:35:27;;;;;;;13.25;11.88;;;;;;;12.69;59.24;101317.69;10184690;28;20082;-55
2021/10/09 22:40:28;;;;;;;12.63;11.43;;;;;;;12.67;59.74;101331.16;10181839;28;20083;-57
2021/10/09 22:45:30;;;;;;;14.18;12.70;;;;;;;12.12;60.78;101317.22;10186267;28;20047;-57
2021/10/09 22:50:31;;;;;;;14.70;13.20;;;;;;;12.37;60.00;101327.03;10186399;28;20406;-54
2021/10/09 22:55:33;;;;;;;13.57;12.18;;;;;;;12.31;59.90;101324.81;10185042;28;20052;-53
2021/10/09 23:00:34;;;;;;;13.57;12.15;;;;;;;12.30;59.75;101323.09;10187156;28;20059;-54
2021/10/09 23:05:36;;;;;;;15.57;12.20;;;;;;;12.24;59.96;101323.53;10182508;28;20048;-56
2021/10/09 23:10:37;;;;;;;14.27;12.65;;;;;;;12.14;60.23;101325.13;10183921;28;20071;-55
2021/10/09 23:15:39;;;;;;;13.90;12.40;;;;;;;12.06;60.06;101315.00;10186604;28;20062;-57
2021/10/09 23:20:41;;;;;;;15.02;12.63;;;;;;;12.07;60.24;101316.72;10243388;23;20632;-65
2021/10/09 23:25:42;;;;;;;13.88;12.25;;;;;;;12.02;60.30;101316.16;10284043;28;20043;-65
2021/10/09 23:30:43;;;;;;;13.85;12.43;;;;;;;11.94;60.44;101314.03;10270163;28;20051;-65
2021/10/09 23:35:45;;;;;;;13.73;12.32;;;;;;;11.90;60.45;101309.84;10265994;28;20043;-65
2021/10/09 23:40:47;;;;;;;14.30;12.52;;;;;;;11.89;60.79;101307.28;10261566;28;20058;-65
2021/10/09 23:45:48;;;;;;;15.55;13.52;;;;;;;11.80;60.25;101306.97;10260799;28;20491;-65
2021/10/09 23:50:50;;;;;;;17.20;13.77;;;;;;;11.73;60.48;101302.16;10261582;28;20054;-65
2021/10/09 23:55:51;;;;;;;16.17;13.68;;;;;;;11.67;60.67;101303.44;10267700;28;20051;-65
